Rechercher aéroport 
image banner adimage banner adimage banner ad
image banner ad

1CL0 - William Archibald

Situé à San Dimas, United States

ICAO - 1CL0, IATA -

Données fournies par Airmate  

Information générale

Coordonnées: N34°6'17" W117°47'59"
Élévation : 984 feet MSL.
Variation magnétique : 14° East
Voir autres Aéroports à California

Données opérationnelles

Special qualification required
Heure actuelle UTC:
Heure actuelle locale:
Météo à : KPOC - Brackett Field ( 2 km )
METAR: KPOC 210147Z 26008KT 10SM CLR 27/13 A2992
Voir NOTAMs / SUP AIP / TFR affectant cet aéroport [VIEW]
Fréquences de communication: [VIEW]

Pistes:

Coordonnées de l'aéroport

Adresse: San Dimas United States

Vue satellite de 1CL0